Terminal Aerodrome Forecast
Issued by NWS

Home | Current Version | Previous Version | Text Only | Print | Product List | Glossary On
Versions: 1 2 3 4 5 6 7 8 9 10 11 12 13 14
193
FTUS46 KSEW 211201 AAA
TAFCLM
TAF AMD
KCLM 211201Z 2112/2212 16004KT P6SM BKN013 BKN090
     FM211400 00000KT 4SM -RA BR BKN013 OVC050
     FM211800 10004KT 2SM RA BR OVC013
     FM220100 27003KT 6SM -SHRA SCT015 BKN025=

USA.gov is the U.S. government's official web portal to all federal, state and local government web resources and services.